KLGF/LGF METAR and TAF weather

Enter ICAO airport designator
Station Type Date Time Source
KLGF METAR 2021/03/04 23:58 UTC NOAA

KLGF 042358Z AUTO 26010KT 9SM CLR 23/02 A3016 RMK AO2 SLP212 T02290022 10233 20179 56010 $


Station Type Date Time Source
KLGF Decoded METAR 2021/03/04 23:58 UTC NOAA

Station name not available
Mar 04, 2021 - 06:58 PM EST / 2021.03.04 2358 UTC
Wind: from the W (260 degrees) at 12 MPH (10 KT):0
Visibility: 9 mile(s):0
Sky conditions: clear
Temperature: 73.2 F (22.9 C)
Dew Point: 36.0 F (2.2 C)
Relative Humidity: 25%
Pressure (altimeter): 30.16 in. Hg (1021 hPa)
Pressure tendency: 0.03 inches (1.0 hPa) lower than three hours ago
ob: KLGF 042358Z AUTO 26010KT 9SM CLR 23/02 A3016 RMK AO2 SLP212 T02290022 10233 20179 56010
cycle: 0

Station Type Date Time Source
KLGF TAF UTC NOAA

Error!

Example: see airport list